Historique des mesures à Cassis (13260), France
Quotidien Résumé Janvier 31, 2017 Unités:  Métrique    US   Métrique/US
« Précédent (Jour)
Suivant (Jour) »
Quotidien Hebdomadaire Mensuel Annuel Période au choix
  Maximum: Minimum: Moyenne:
Température: TemperatureC °C 12.5 °C 13.1 °C
Point de rosée: DewpointC °C 9.0 °C 9.8 °C
Humidité: Humidity % 78 % 77 %
Vitesse du vent: 0 km/h 0 km/h 0.5 km/h
Rafales: 0 km/h - -
Vent:- - ESE
Pression: PressurehPa hPa 1015.5 hPa -
Précipitations: 0.0 mm    
Historical Graphs
 
 
Mesures pour : Janvier 31, 2017
Heure Temperature Point de rosée Pression Vent Vitesse du vent Rafales Humidité Pluie (par heure) Conditions
TemperatureC °C DewpointC °C PressurehPa hPa Calm     Humidity % HourlyPrecipMM mm SoftwareType W/m2
00:10 12.8 °C 9.0 °C 1016.8 hPa Calm     78 % 0.0 mm open2300-1.11 W/m2
01:11 12.6 °C 9.1 °C 1016.8 hPa Calm     79 % 0.0 mm open2300-1.11 W/m2
02:10 12.6 °C 9.1 °C 1016.5 hPa Calm     79 % 0.0 mm open2300-1.11 W/m2
03:11 12.5 °C 9.2 °C 1016.1 hPa NE 4.2 km/h 4.2 km/h 80 % 0.0 mm open2300-1.11 W/m2
04:10 12.5 °C 9.2 °C 1015.8 hPa Calm     80 % 0.0 mm open2300-1.11 W/m2
05:11 12.5 °C 9.3 °C 1015.8 hPa Calm     81 % 0.0 mm open2300-1.11 W/m2
06:10 12.7 °C 9.5 °C 1015.8 hPa Calm     81 % 0.0 mm open2300-1.11 W/m2
07:11 12.6 °C 9.2 °C 1016.1 hPa Calm   5.6 km/h 80 % 0.0 mm open2300-1.11 W/m2
08:10 12.9 °C 9.3 °C 1016.1 hPa SE 2.3 km/h 3.4 km/h 79 % 0.0 mm open2300-1.11 W/m2
09:11 13.2 °C 9.6 °C 1016.1 hPa Calm     79 % 0.0 mm open2300-1.11 W/m2
10:10 13.7 °C 10.1 °C 1016.5 hPa Calm   3.4 km/h 79 % 0.0 mm open2300-1.11 W/m2
11:11 14.4 °C 10.6 °C 1016.8 hPa Calm   3.4 km/h 78 % 0.0 mm open2300-1.11 W/m2
12:10 14.5 °C 10.9 °C 1016.8 hPa Calm   5.6 km/h 79 % 0.0 mm open2300-1.11 W/m2
13:11 14.8 °C 11.2 °C 1016.5 hPa Calm   2.3 km/h 79 % 0.0 mm open2300-1.11 W/m2
14:10 14.9 °C 11.1 °C 1016.1 hPa SE 3.4 km/h 3.4 km/h 78 % 0.0 mm open2300-1.11 W/m2
15:11 14.8 °C 11.2 °C 1015.5 hPa Calm     79 % 0.0 mm open2300-1.11 W/m2
16:10 14.6 °C 11.2 °C 1015.8 hPa Calm     80 % 0.0 mm open2300-1.11 W/m2
17:11 14.4 °C 11.2 °C 1016.1 hPa Calm   2.3 km/h 81 % 0.0 mm open2300-1.11 W/m2
18:10 14.2 °C 11.2 °C 1016.1 hPa Calm     82 % 0.0 mm open2300-1.11 W/m2
19:11 14.1 °C 11.1 °C 1016.1 hPa Calm     82 % 0.0 mm open2300-1.11 W/m2
21:11 14.1 °C 10.9 °C 1016.1 hPa Calm     81 % 0.0 mm open2300-1.11 W/m2
22:10 14.2 °C 11.0 °C 1016.1 hPa Calm     81 % 0.0 mm open2300-1.11 W/m2
23:11 14.2 °C 11.2 °C 1016.1 hPa Calm     82 % 0.0 mm open2300-1.11 W/m2
Observations météo à CASSIS
WU-History script by Weather Underground - 1 mb